sensor_id;sensor_type;location;lat;lon;timestamp;P1;durP1;ratioP1;P2;durP2;ratioP2
22673;SDS011;11504;43.334;21.918;2022-07-29T00:03:25;13.0;;;12.0;;
22673;SDS011;11504;43.334;21.918;2022-07-29T00:08:02;13.0;;;12.0;;
22673;SDS011;11504;43.334;21.918;2022-07-29T00:12:39;13.0;;;12.0;;
22673;SDS011;11504;43.334;21.918;2022-07-29T00:17:15;13.0;;;12.0;;
22673;SDS011;11504;43.334;21.918;2022-07-29T00:21:52;13.0;;;12.0;;
22673;SDS011;11504;43.334;21.918;2022-07-29T00:26:28;13.0;;;12.0;;
22673;SDS011;11504;43.334;21.918;2022-07-29T00:40:18;19.0;;;18.0;;
22673;SDS011;11504;43.334;21.918;2022-07-29T00:44:54;19.0;;;18.0;;
22673;SDS011;11504;43.334;21.918;2022-07-29T00:49:31;19.0;;;18.0;;
22673;SDS011;11504;43.334;21.918;2022-07-29T00:54:08;19.0;;;18.0;;
22673;SDS011;11504;43.334;21.918;2022-07-29T00:58:51;18.0;;;18.0;;
22673;SDS011;11504;43.334;21.918;2022-07-29T01:03:29;18.0;;;18.0;;
22673;SDS011;11504;43.334;21.918;2022-07-29T01:08:08;18.0;;;18.0;;
22673;SDS011;11504;43.334;21.918;2022-07-29T01:12:51;18.0;;;18.0;;
22673;SDS011;11504;43.334;21.918;2022-07-29T01:17:47;18.0;;;18.0;;
22673;SDS011;11504;43.334;21.918;2022-07-29T01:23:34;17.0;;;16.0;;
22673;SDS011;11504;43.334;21.918;2022-07-29T01:29:07;16.0;;;15.0;;
22673;SDS011;11504;43.334;21.918;2022-07-29T01:34:08;16.0;;;15.0;;
22673;SDS011;11504;43.334;21.918;2022-07-29T01:39:19;16.0;;;15.0;;
22673;SDS011;11504;43.334;21.918;2022-07-29T01:44:30;16.0;;;15.0;;
22673;SDS011;11504;43.334;21.918;2022-07-29T01:49:31;15.0;;;15.0;;
22673;SDS011;11504;43.334;21.918;2022-07-29T01:54:39;15.0;;;15.0;;
22673;SDS011;11504;43.334;21.918;2022-07-29T01:59:47;15.0;;;14.0;;
22673;SDS011;11504;43.334;21.918;2022-07-29T02:04:39;15.0;;;14.0;;
22673;SDS011;11504;43.334;21.918;2022-07-29T02:09:35;15.0;;;14.0;;
22673;SDS011;11504;43.334;21.918;2022-07-29T02:14:33;15.0;;;14.0;;
22673;SDS011;11504;43.334;21.918;2022-07-29T02:19:33;14.0;;;14.0;;
22673;SDS011;11504;43.334;21.918;2022-07-29T02:24:26;14.0;;;14.0;;
22673;SDS011;11504;43.334;21.918;2022-07-29T02:29:12;14.0;;;13.0;;
22673;SDS011;11504;43.334;21.918;2022-07-29T02:33:54;14.0;;;13.0;;
22673;SDS011;11504;43.334;21.918;2022-07-29T02:38:36;14.0;;;14.0;;
22673;SDS011;11504;43.334;21.918;2022-07-29T02:43:21;14.0;;;14.0;;
22673;SDS011;11504;43.334;21.918;2022-07-29T02:48:16;14.0;;;14.0;;
22673;SDS011;11504;43.334;21.918;2022-07-29T02:53:13;15.0;;;15.0;;
22673;SDS011;11504;43.334;21.918;2022-07-29T02:58:06;15.0;;;15.0;;
22673;SDS011;11504;43.334;21.918;2022-07-29T03:03:04;16.0;;;15.0;;
22673;SDS011;11504;43.334;21.918;2022-07-29T03:08:04;16.0;;;15.0;;
22673;SDS011;11504;43.334;21.918;2022-07-29T03:12:48;16.0;;;15.0;;
22673;SDS011;11504;43.334;21.918;2022-07-29T03:17:27;16.0;;;15.0;;
22673;SDS011;11504;43.334;21.918;2022-07-29T03:22:07;16.0;;;15.0;;
22673;SDS011;11504;43.334;21.918;2022-07-29T03:26:45;16.0;;;15.0;;
22673;SDS011;11504;43.334;21.918;2022-07-29T03:31:22;16.0;;;15.0;;
22673;SDS011;11504;43.334;21.918;2022-07-29T03:35:58;16.0;;;15.0;;
22673;SDS011;11504;43.334;21.918;2022-07-29T03:40:49;16.0;;;15.0;;
22673;SDS011;11504;43.334;21.918;2022-07-29T03:45:36;16.0;;;15.0;;
22673;SDS011;11504;43.334;21.918;2022-07-29T03:50:16;15.0;;;15.0;;
22673;SDS011;11504;43.334;21.918;2022-07-29T03:54:53;15.0;;;15.0;;
22673;SDS011;11504;43.334;21.918;2022-07-29T03:59:33;15.0;;;14.0;;
22673;SDS011;11504;43.334;21.918;2022-07-29T04:04:13;15.0;;;14.0;;
22673;SDS011;11504;43.334;21.918;2022-07-29T04:08:50;15.0;;;14.0;;
22673;SDS011;11504;43.334;21.918;2022-07-29T04:13:28;15.0;;;14.0;;
22673;SDS011;11504;43.334;21.918;2022-07-29T04:18:05;15.0;;;14.0;;
22673;SDS011;11504;43.334;21.918;2022-07-29T04:22:42;15.0;;;14.0;;
22673;SDS011;11504;43.334;21.918;2022-07-29T04:27:19;15.0;;;14.0;;
22673;SDS011;11504;43.334;21.918;2022-07-29T04:31:56;15.0;;;14.0;;
22673;SDS011;11504;43.334;21.918;2022-07-29T04:36:33;15.0;;;14.0;;
22673;SDS011;11504;43.334;21.918;2022-07-29T04:41:11;16.0;;;14.0;;
22673;SDS011;11504;43.334;21.918;2022-07-29T04:45:48;16.0;;;14.0;;
22673;SDS011;11504;43.334;21.918;2022-07-29T04:50:26;16.0;;;15.0;;
22673;SDS011;11504;43.334;21.918;2022-07-29T04:55:07;16.0;;;15.0;;
22673;SDS011;11504;43.334;21.918;2022-07-29T04:59:45;14.0;;;14.0;;
22673;SDS011;11504;43.334;21.918;2022-07-29T05:04:22;14.0;;;14.0;;
22673;SDS011;11504;43.334;21.918;2022-07-29T05:09:00;12.0;;;12.0;;
22673;SDS011;11504;43.334;21.918;2022-07-29T05:13:36;12.0;;;12.0;;
22673;SDS011;11504;43.334;21.918;2022-07-29T05:18:12;12.0;;;12.0;;
22673;SDS011;11504;43.334;21.918;2022-07-29T05:22:49;11.0;;;11.0;;
22673;SDS011;11504;43.334;21.918;2022-07-29T05:27:25;11.0;;;11.0;;
22673;SDS011;11504;43.334;21.918;2022-07-29T05:32:03;10.0;;;10.0;;
22673;SDS011;11504;43.334;21.918;2022-07-29T05:36:41;10.0;;;10.0;;
22673;SDS011;11504;43.334;21.918;2022-07-29T05:41:18;11.0;;;11.0;;
22673;SDS011;11504;43.334;21.918;2022-07-29T05:45:55;11.0;;;11.0;;
22673;SDS011;11504;43.334;21.918;2022-07-29T05:50:31;12.0;;;12.0;;
22673;SDS011;11504;43.334;21.918;2022-07-29T05:55:09;12.0;;;12.0;;
22673;SDS011;11504;43.334;21.918;2022-07-29T05:59:47;12.0;;;12.0;;
22673;SDS011;11504;43.334;21.918;2022-07-29T06:04:26;12.0;;;12.0;;
22673;SDS011;11504;43.334;21.918;2022-07-29T06:09:03;13.0;;;12.0;;
22673;SDS011;11504;43.334;21.918;2022-07-29T06:13:40;13.0;;;12.0;;
22673;SDS011;11504;43.334;21.918;2022-07-29T06:18:16;13.0;;;12.0;;
22673;SDS011;11504;43.334;21.918;2022-07-29T06:22:52;13.0;;;12.0;;
22673;SDS011;11504;43.334;21.918;2022-07-29T06:27:28;13.0;;;12.0;;
22673;SDS011;11504;43.334;21.918;2022-07-29T06:32:06;13.0;;;12.0;;
22673;SDS011;11504;43.334;21.918;2022-07-29T06:36:42;13.0;;;12.0;;
22673;SDS011;11504;43.334;21.918;2022-07-29T06:41:18;13.0;;;12.0;;
22673;SDS011;11504;43.334;21.918;2022-07-29T06:45:55;13.0;;;12.0;;
22673;SDS011;11504;43.334;21.918;2022-07-29T06:50:31;13.0;;;13.0;;
22673;SDS011;11504;43.334;21.918;2022-07-29T06:55:09;13.0;;;13.0;;
22673;SDS011;11504;43.334;21.918;2022-07-29T06:59:46;14.0;;;14.0;;
22673;SDS011;11504;43.334;21.918;2022-07-29T07:04:24;14.0;;;14.0;;
22673;SDS011;11504;43.334;21.918;2022-07-29T07:09:01;15.0;;;14.0;;
22673;SDS011;11504;43.334;21.918;2022-07-29T07:13:39;15.0;;;14.0;;
22673;SDS011;11504;43.334;21.918;2022-07-29T07:18:18;15.0;;;14.0;;
22673;SDS011;11504;43.334;21.918;2022-07-29T07:22:55;15.0;;;14.0;;
22673;SDS011;11504;43.334;21.918;2022-07-29T07:27:32;15.0;;;14.0;;
22673;SDS011;11504;43.334;21.918;2022-07-29T07:32:09;15.0;;;14.0;;
22673;SDS011;11504;43.334;21.918;2022-07-29T07:36:46;15.0;;;14.0;;
22673;SDS011;11504;43.334;21.918;2022-07-29T07:41:24;15.0;;;14.0;;
22673;SDS011;11504;43.334;21.918;2022-07-29T07:46:02;15.0;;;14.0;;
22673;SDS011;11504;43.334;21.918;2022-07-29T07:50:40;15.0;;;14.0;;
22673;SDS011;11504;43.334;21.918;2022-07-29T07:55:17;15.0;;;14.0;;
22673;SDS011;11504;43.334;21.918;2022-07-29T07:59:55;15.0;;;14.0;;
22673;SDS011;11504;43.334;21.918;2022-07-29T08:04:32;15.0;;;14.0;;
22673;SDS011;11504;43.334;21.918;2022-07-29T08:09:09;15.0;;;15.0;;
22673;SDS011;11504;43.334;21.918;2022-07-29T08:13:45;15.0;;;15.0;;
22673;SDS011;11504;43.334;21.918;2022-07-29T08:18:22;15.0;;;15.0;;
22673;SDS011;11504;43.334;21.918;2022-07-29T08:22:59;15.0;;;14.0;;
22673;SDS011;11504;43.334;21.918;2022-07-29T08:27:35;15.0;;;14.0;;
22673;SDS011;11504;43.334;21.918;2022-07-29T08:32:12;15.0;;;14.0;;
22673;SDS011;11504;43.334;21.918;2022-07-29T08:36:48;15.0;;;14.0;;
22673;SDS011;11504;43.334;21.918;2022-07-29T08:41:25;15.0;;;14.0;;
22673;SDS011;11504;43.334;21.918;2022-07-29T08:46:02;15.0;;;14.0;;
22673;SDS011;11504;43.334;21.918;2022-07-29T08:50:43;15.0;;;14.0;;
22673;SDS011;11504;43.334;21.918;2022-07-29T08:55:22;15.0;;;14.0;;
22673;SDS011;11504;43.334;21.918;2022-07-29T09:00:06;16.0;;;15.0;;
22673;SDS011;11504;43.334;21.918;2022-07-29T09:04:45;16.0;;;15.0;;
22673;SDS011;11504;43.334;21.918;2022-07-29T09:09:24;17.0;;;16.0;;
22673;SDS011;11504;43.334;21.918;2022-07-29T09:14:00;17.0;;;16.0;;
22673;SDS011;11504;43.334;21.918;2022-07-29T09:18:42;17.0;;;16.0;;
22673;SDS011;11504;43.334;21.918;2022-07-29T09:23:23;16.0;;;15.0;;
22673;SDS011;11504;43.334;21.918;2022-07-29T09:28:08;16.0;;;15.0;;
22673;SDS011;11504;43.334;21.918;2022-07-29T09:33:02;14.0;;;14.0;;
22673;SDS011;11504;43.334;21.918;2022-07-29T09:37:40;14.0;;;14.0;;
22673;SDS011;11504;43.334;21.918;2022-07-29T09:42:30;14.0;;;13.0;;
22673;SDS011;11504;43.334;21.918;2022-07-29T09:47:07;14.0;;;13.0;;
22673;SDS011;11504;43.334;21.918;2022-07-29T09:51:45;13.0;;;12.0;;
22673;SDS011;11504;43.334;21.918;2022-07-29T09:56:40;13.0;;;12.0;;
22673;SDS011;11504;43.334;21.918;2022-07-29T10:01:28;12.0;;;12.0;;
22673;SDS011;11504;43.334;21.918;2022-07-29T10:06:11;12.0;;;12.0;;
22673;SDS011;11504;43.334;21.918;2022-07-29T10:10:48;12.0;;;12.0;;
22673;SDS011;11504;43.334;21.918;2022-07-29T10:15:32;12.0;;;12.0;;
22673;SDS011;11504;43.334;21.918;2022-07-29T10:20:22;11.0;;;10.0;;
22673;SDS011;11504;43.334;21.918;2022-07-29T10:25:05;11.0;;;10.0;;
22673;SDS011;11504;43.334;21.918;2022-07-29T10:29:46;10.0;;;9.0;;
22673;SDS011;11504;43.334;21.918;2022-07-29T10:34:57;10.0;;;9.0;;
22673;SDS011;11504;43.334;21.918;2022-07-29T10:40:29;10.0;;;9.0;;
22673;SDS011;11504;43.334;21.918;2022-07-29T10:45:30;10.0;;;9.0;;
22673;SDS011;11504;43.334;21.918;2022-07-29T10:50:09;10.0;;;9.0;;
22673;SDS011;11504;43.334;21.918;2022-07-29T10:54:49;10.0;;;9.0;;
22673;SDS011;11504;43.334;21.918;2022-07-29T10:59:26;10.0;;;10.0;;
22673;SDS011;11504;43.334;21.918;2022-07-29T11:04:03;10.0;;;10.0;;
22673;SDS011;11504;43.334;21.918;2022-07-29T11:08:41;10.0;;;10.0;;
22673;SDS011;11504;43.334;21.918;2022-07-29T11:13:48;11.0;;;10.0;;
22673;SDS011;11504;43.334;21.918;2022-07-29T11:18:27;11.0;;;10.0;;
22673;SDS011;11504;43.334;21.918;2022-07-29T11:23:27;11.0;;;10.0;;
22673;SDS011;11504;43.334;21.918;2022-07-29T11:28:21;11.0;;;10.0;;
22673;SDS011;11504;43.334;21.918;2022-07-29T11:32:58;11.0;;;10.0;;
22673;SDS011;11504;43.334;21.918;2022-07-29T11:37:35;11.0;;;10.0;;
22673;SDS011;11504;43.334;21.918;2022-07-29T11:42:47;12.0;;;10.0;;
22673;SDS011;11504;43.334;21.918;2022-07-29T11:47:28;12.0;;;10.0;;
22673;SDS011;11504;43.334;21.918;2022-07-29T11:52:05;12.0;;;11.0;;
22673;SDS011;11504;43.334;21.918;2022-07-29T11:56:47;12.0;;;11.0;;
22673;SDS011;11504;43.334;21.918;2022-07-29T12:01:24;12.0;;;10.0;;
22673;SDS011;11504;43.334;21.918;2022-07-29T12:06:03;12.0;;;10.0;;
22673;SDS011;11504;43.334;21.918;2022-07-29T12:10:52;11.0;;;10.0;;
22673;SDS011;11504;43.334;21.918;2022-07-29T12:15:31;11.0;;;10.0;;
22673;SDS011;11504;43.334;21.918;2022-07-29T12:20:09;12.0;;;12.0;;
22673;SDS011;11504;43.334;21.918;2022-07-29T12:24:47;12.0;;;12.0;;
22673;SDS011;11504;43.334;21.918;2022-07-29T12:29:26;14.0;;;13.0;;
22673;SDS011;11504;43.334;21.918;2022-07-29T12:34:03;14.0;;;13.0;;
22673;SDS011;11504;43.334;21.918;2022-07-29T12:38:41;14.0;;;13.0;;
22673;SDS011;11504;43.334;21.918;2022-07-29T12:43:25;13.0;;;12.0;;
22673;SDS011;11504;43.334;21.918;2022-07-29T12:48:06;13.0;;;12.0;;
22673;SDS011;11504;43.334;21.918;2022-07-29T12:52:47;12.0;;;12.0;;
22673;SDS011;11504;43.334;21.918;2022-07-29T12:57:26;12.0;;;12.0;;
22673;SDS011;11504;43.334;21.918;2022-07-29T13:02:07;12.0;;;12.0;;
22673;SDS011;11504;43.334;21.918;2022-07-29T13:07:02;12.0;;;12.0;;
22673;SDS011;11504;43.334;21.918;2022-07-29T13:11:47;13.0;;;12.0;;
22673;SDS011;11504;43.334;21.918;2022-07-29T13:16:29;13.0;;;12.0;;
22673;SDS011;11504;43.334;21.918;2022-07-29T13:21:15;13.0;;;12.0;;
22673;SDS011;11504;43.334;21.918;2022-07-29T13:25:52;13.0;;;12.0;;
22673;SDS011;11504;43.334;21.918;2022-07-29T13:30:29;13.0;;;12.0;;
22673;SDS011;11504;43.334;21.918;2022-07-29T13:35:09;13.0;;;12.0;;
22673;SDS011;11504;43.334;21.918;2022-07-29T13:39:46;13.0;;;12.0;;
22673;SDS011;11504;43.334;21.918;2022-07-29T13:44:22;13.0;;;12.0;;
22673;SDS011;11504;43.334;21.918;2022-07-29T13:48:58;13.0;;;12.0;;
22673;SDS011;11504;43.334;21.918;2022-07-29T13:53:35;13.0;;;12.0;;
22673;SDS011;11504;43.334;21.918;2022-07-29T13:58:11;13.0;;;12.0;;
22673;SDS011;11504;43.334;21.918;2022-07-29T14:02:47;13.0;;;12.0;;
22673;SDS011;11504;43.334;21.918;2022-07-29T14:07:24;13.0;;;12.0;;
22673;SDS011;11504;43.334;21.918;2022-07-29T14:12:00;13.0;;;13.0;;
22673;SDS011;11504;43.334;21.918;2022-07-29T14:16:37;13.0;;;13.0;;
22673;SDS011;11504;43.334;21.918;2022-07-29T14:21:14;12.0;;;12.0;;
22673;SDS011;11504;43.334;21.918;2022-07-29T14:25:51;12.0;;;12.0;;
22673;SDS011;11504;43.334;21.918;2022-07-29T14:30:27;12.0;;;12.0;;
22673;SDS011;11504;43.334;21.918;2022-07-29T14:35:06;12.0;;;12.0;;
22673;SDS011;11504;43.334;21.918;2022-07-29T14:39:43;12.0;;;12.0;;
22673;SDS011;11504;43.334;21.918;2022-07-29T14:44:20;12.0;;;12.0;;
22673;SDS011;11504;43.334;21.918;2022-07-29T14:48:56;12.0;;;12.0;;
22673;SDS011;11504;43.334;21.918;2022-07-29T14:53:33;13.0;;;12.0;;
22673;SDS011;11504;43.334;21.918;2022-07-29T14:58:10;13.0;;;12.0;;
22673;SDS011;11504;43.334;21.918;2022-07-29T15:02:48;14.0;;;13.0;;
22673;SDS011;11504;43.334;21.918;2022-07-29T15:07:25;14.0;;;13.0;;
22673;SDS011;11504;43.334;21.918;2022-07-29T15:12:03;14.0;;;14.0;;
22673;SDS011;11504;43.334;21.918;2022-07-29T15:16:42;14.0;;;14.0;;
22673;SDS011;11504;43.334;21.918;2022-07-29T15:21:19;14.0;;;14.0;;
22673;SDS011;11504;43.334;21.918;2022-07-29T15:25:56;14.0;;;14.0;;
22673;SDS011;11504;43.334;21.918;2022-07-29T15:30:36;15.0;;;14.0;;
22673;SDS011;11504;43.334;21.918;2022-07-29T15:35:13;15.0;;;14.0;;
22673;SDS011;11504;43.334;21.918;2022-07-29T15:39:50;15.0;;;14.0;;
22673;SDS011;11504;43.334;21.918;2022-07-29T15:44:27;15.0;;;14.0;;
22673;SDS011;11504;43.334;21.918;2022-07-29T15:49:07;15.0;;;14.0;;
22673;SDS011;11504;43.334;21.918;2022-07-29T15:53:44;15.0;;;14.0;;
22673;SDS011;11504;43.334;21.918;2022-07-29T15:58:20;15.0;;;14.0;;
22673;SDS011;11504;43.334;21.918;2022-07-29T16:02:56;15.0;;;14.0;;
22673;SDS011;11504;43.334;21.918;2022-07-29T16:07:32;15.0;;;14.0;;
22673;SDS011;11504;43.334;21.918;2022-07-29T16:12:09;15.0;;;15.0;;
22673;SDS011;11504;43.334;21.918;2022-07-29T16:16:45;15.0;;;15.0;;
22673;SDS011;11504;43.334;21.918;2022-07-29T16:21:21;16.0;;;16.0;;
22673;SDS011;11504;43.334;21.918;2022-07-29T16:25:58;16.0;;;16.0;;
22673;SDS011;11504;43.334;21.918;2022-07-29T16:30:35;16.0;;;16.0;;
22673;SDS011;11504;43.334;21.918;2022-07-29T16:35:12;16.0;;;16.0;;
22673;SDS011;11504;43.334;21.918;2022-07-29T16:39:49;16.0;;;16.0;;
22673;SDS011;11504;43.334;21.918;2022-07-29T16:44:25;16.0;;;16.0;;
22673;SDS011;11504;43.334;21.918;2022-07-29T16:49:02;16.0;;;16.0;;
22673;SDS011;11504;43.334;21.918;2022-07-29T16:53:38;17.0;;;16.0;;
22673;SDS011;11504;43.334;21.918;2022-07-29T16:58:15;17.0;;;16.0;;
22673;SDS011;11504;43.334;21.918;2022-07-29T17:02:51;16.0;;;15.0;;
22673;SDS011;11504;43.334;21.918;2022-07-29T17:07:28;16.0;;;15.0;;
22673;SDS011;11504;43.334;21.918;2022-07-29T17:12:06;14.0;;;14.0;;
22673;SDS011;11504;43.334;21.918;2022-07-29T17:16:43;14.0;;;14.0;;
22673;SDS011;11504;43.334;21.918;2022-07-29T17:21:23;15.0;;;14.0;;
22673;SDS011;11504;43.334;21.918;2022-07-29T17:26:00;15.0;;;14.0;;
22673;SDS011;11504;43.334;21.918;2022-07-29T17:30:37;16.0;;;15.0;;
22673;SDS011;11504;43.334;21.918;2022-07-29T17:35:14;16.0;;;15.0;;
22673;SDS011;11504;43.334;21.918;2022-07-29T17:39:50;16.0;;;16.0;;
22673;SDS011;11504;43.334;21.918;2022-07-29T17:44:27;16.0;;;16.0;;
22673;SDS011;11504;43.334;21.918;2022-07-29T17:49:05;16.0;;;16.0;;
22673;SDS011;11504;43.334;21.918;2022-07-29T17:53:43;17.0;;;16.0;;
22673;SDS011;11504;43.334;21.918;2022-07-29T17:58:20;17.0;;;16.0;;
22673;SDS011;11504;43.334;21.918;2022-07-29T18:02:57;16.0;;;16.0;;
22673;SDS011;11504;43.334;21.918;2022-07-29T18:07:34;16.0;;;16.0;;
22673;SDS011;11504;43.334;21.918;2022-07-29T18:12:11;16.0;;;16.0;;
22673;SDS011;11504;43.334;21.918;2022-07-29T18:16:48;16.0;;;16.0;;
22673;SDS011;11504;43.334;21.918;2022-07-29T18:21:25;16.0;;;16.0;;
22673;SDS011;11504;43.334;21.918;2022-07-29T18:26:04;16.0;;;16.0;;
22673;SDS011;11504;43.334;21.918;2022-07-29T18:30:41;17.0;;;16.0;;
22673;SDS011;11504;43.334;21.918;2022-07-29T18:35:18;17.0;;;16.0;;
22673;SDS011;11504;43.334;21.918;2022-07-29T18:39:54;17.0;;;16.0;;
22673;SDS011;11504;43.334;21.918;2022-07-29T18:44:31;17.0;;;16.0;;
22673;SDS011;11504;43.334;21.918;2022-07-29T18:49:08;17.0;;;16.0;;
22673;SDS011;11504;43.334;21.918;2022-07-29T18:53:44;17.0;;;16.0;;
22673;SDS011;11504;43.334;21.918;2022-07-29T18:58:21;17.0;;;16.0;;
22673;SDS011;11504;43.334;21.918;2022-07-29T19:02:57;17.0;;;16.0;;
22673;SDS011;11504;43.334;21.918;2022-07-29T19:07:34;17.0;;;16.0;;
22673;SDS011;11504;43.334;21.918;2022-07-29T19:12:11;17.0;;;16.0;;
22673;SDS011;11504;43.334;21.918;2022-07-29T19:16:48;17.0;;;16.0;;
22673;SDS011;11504;43.334;21.918;2022-07-29T19:21:24;16.0;;;16.0;;
22673;SDS011;11504;43.334;21.918;2022-07-29T19:26:01;16.0;;;16.0;;
22673;SDS011;11504;43.334;21.918;2022-07-29T19:30:38;16.0;;;16.0;;
22673;SDS011;11504;43.334;21.918;2022-07-29T19:35:14;16.0;;;16.0;;
22673;SDS011;11504;43.334;21.918;2022-07-29T19:39:50;16.0;;;16.0;;
22673;SDS011;11504;43.334;21.918;2022-07-29T19:44:27;16.0;;;16.0;;
22673;SDS011;11504;43.334;21.918;2022-07-29T19:49:03;16.0;;;16.0;;
22673;SDS011;11504;43.334;21.918;2022-07-29T19:53:39;16.0;;;15.0;;
22673;SDS011;11504;43.334;21.918;2022-07-29T19:58:16;16.0;;;15.0;;
22673;SDS011;11504;43.334;21.918;2022-07-29T20:02:52;17.0;;;16.0;;
22673;SDS011;11504;43.334;21.918;2022-07-29T20:07:28;17.0;;;16.0;;
22673;SDS011;11504;43.334;21.918;2022-07-29T20:12:08;18.0;;;17.0;;
22673;SDS011;11504;43.334;21.918;2022-07-29T20:16:47;18.0;;;17.0;;
22673;SDS011;11504;43.334;21.918;2022-07-29T20:21:25;18.0;;;16.0;;
22673;SDS011;11504;43.334;21.918;2022-07-29T20:26:02;18.0;;;16.0;;
22673;SDS011;11504;43.334;21.918;2022-07-29T20:30:40;17.0;;;16.0;;
22673;SDS011;11504;43.334;21.918;2022-07-29T20:35:17;17.0;;;16.0;;
22673;SDS011;11504;43.334;21.918;2022-07-29T20:39:55;16.0;;;16.0;;
22673;SDS011;11504;43.334;21.918;2022-07-29T20:44:32;16.0;;;16.0;;
22673;SDS011;11504;43.334;21.918;2022-07-29T20:49:10;16.0;;;16.0;;
22673;SDS011;11504;43.334;21.918;2022-07-29T20:53:48;15.0;;;15.0;;
22673;SDS011;11504;43.334;21.918;2022-07-29T20:58:25;15.0;;;15.0;;
22673;SDS011;11504;43.334;21.918;2022-07-29T21:03:03;15.0;;;14.0;;
22673;SDS011;11504;43.334;21.918;2022-07-29T21:07:40;15.0;;;14.0;;
22673;SDS011;11504;43.334;21.918;2022-07-29T21:12:17;15.0;;;14.0;;
22673;SDS011;11504;43.334;21.918;2022-07-29T21:16:53;15.0;;;14.0;;
22673;SDS011;11504;43.334;21.918;2022-07-29T21:21:30;16.0;;;15.0;;
22673;SDS011;11504;43.334;21.918;2022-07-29T21:26:06;16.0;;;15.0;;
22673;SDS011;11504;43.334;21.918;2022-07-29T21:30:43;16.0;;;16.0;;
22673;SDS011;11504;43.334;21.918;2022-07-29T21:35:20;16.0;;;16.0;;
22673;SDS011;11504;43.334;21.918;2022-07-29T21:39:56;16.0;;;16.0;;
22673;SDS011;11504;43.334;21.918;2022-07-29T21:44:33;16.0;;;16.0;;
22673;SDS011;11504;43.334;21.918;2022-07-29T21:49:10;16.0;;;16.0;;
22673;SDS011;11504;43.334;21.918;2022-07-29T21:53:46;16.0;;;16.0;;
22673;SDS011;11504;43.334;21.918;2022-07-29T21:58:23;16.0;;;16.0;;
22673;SDS011;11504;43.334;21.918;2022-07-29T22:03:02;16.0;;;16.0;;
22673;SDS011;11504;43.334;21.918;2022-07-29T22:07:41;16.0;;;16.0;;
22673;SDS011;11504;43.334;21.918;2022-07-29T22:12:18;17.0;;;16.0;;
22673;SDS011;11504;43.334;21.918;2022-07-29T22:16:54;17.0;;;16.0;;
22673;SDS011;11504;43.334;21.918;2022-07-29T22:21:31;18.0;;;16.0;;
22673;SDS011;11504;43.334;21.918;2022-07-29T22:26:07;18.0;;;16.0;;
22673;SDS011;11504;43.334;21.918;2022-07-29T22:30:43;18.0;;;17.0;;
22673;SDS011;11504;43.334;21.918;2022-07-29T22:35:19;18.0;;;17.0;;
22673;SDS011;11504;43.334;21.918;2022-07-29T22:39:56;18.0;;;16.0;;
22673;SDS011;11504;43.334;21.918;2022-07-29T22:44:33;18.0;;;16.0;;
22673;SDS011;11504;43.334;21.918;2022-07-29T22:49:10;18.0;;;16.0;;
22673;SDS011;11504;43.334;21.918;2022-07-29T22:53:46;17.0;;;16.0;;
22673;SDS011;11504;43.334;21.918;2022-07-29T22:58:23;17.0;;;16.0;;
22673;SDS011;11504;43.334;21.918;2022-07-29T23:03:00;17.0;;;16.0;;
22673;SDS011;11504;43.334;21.918;2022-07-29T23:07:37;17.0;;;16.0;;
22673;SDS011;11504;43.334;21.918;2022-07-29T23:12:14;17.0;;;16.0;;
22673;SDS011;11504;43.334;21.918;2022-07-29T23:16:51;17.0;;;16.0;;
22673;SDS011;11504;43.334;21.918;2022-07-29T23:21:27;18.0;;;16.0;;
22673;SDS011;11504;43.334;21.918;2022-07-29T23:26:04;18.0;;;16.0;;
22673;SDS011;11504;43.334;21.918;2022-07-29T23:30:42;18.0;;;17.0;;
22673;SDS011;11504;43.334;21.918;2022-07-29T23:35:20;18.0;;;17.0;;
22673;SDS011;11504;43.334;21.918;2022-07-29T23:39:59;17.0;;;16.0;;
22673;SDS011;11504;43.334;21.918;2022-07-29T23:44:38;17.0;;;16.0;;
22673;SDS011;11504;43.334;21.918;2022-07-29T23:49:15;17.0;;;16.0;;
22673;SDS011;11504;43.334;21.918;2022-07-29T23:53:52;16.0;;;16.0;;
22673;SDS011;11504;43.334;21.918;2022-07-29T23:58:28;16.0;;;16.0;;
